createdAt,value
2018-11-06T00:02:18.495Z,55.48
2018-11-06T00:04:51.973Z,55.31
2018-11-06T00:07:20.282Z,55.12
2018-11-06T00:09:48.391Z,55.51
2018-11-06T00:23:40.949Z,55.71
2018-11-06T00:26:09.150Z,55.98
2018-11-06T00:28:37.289Z,55.52
2018-11-06T00:31:05.699Z,55.22
2018-11-06T00:33:33.856Z,55.87
2018-11-06T00:36:01.993Z,55.61
2018-11-06T00:38:30.116Z,55.88
2018-11-06T00:40:58.305Z,55.79
2018-11-06T00:43:26.465Z,54.87
2018-11-06T00:45:54.558Z,55.44
2018-11-06T00:48:22.714Z,55.54
2018-11-06T00:50:50.829Z,54.99
2018-11-06T00:53:18.967Z,55.49
2018-11-06T00:55:47.088Z,54.91
2018-11-06T00:58:15.327Z,55.65
2018-11-06T01:00:43.767Z,55.02
2018-11-06T01:03:11.932Z,55.04
2018-11-06T01:05:40.082Z,54.10
2018-11-06T01:08:08.203Z,54.92
2018-11-06T01:10:36.366Z,55.26
2018-11-06T01:13:04.772Z,54.78
2018-11-06T01:15:32.907Z,55.01
2018-11-06T01:18:00.983Z,55.43
2018-11-06T01:20:29.064Z,54.83
2018-11-06T01:22:57.134Z,55.36
2018-11-06T01:25:25.286Z,55.68
2018-11-06T01:27:53.429Z,55.16
2018-11-06T01:30:21.570Z,55.55
2018-11-06T01:32:49.716Z,55.92
2018-11-06T01:35:18.061Z,55.48
2018-11-06T01:37:46.783Z,55.73
2018-11-06T01:40:16.101Z,54.89
2018-11-06T01:42:44.883Z,54.97
2018-11-06T01:45:14.179Z,55.60
2018-11-06T01:47:42.451Z,55.24
2018-11-06T01:50:13.605Z,55.63
2018-11-06T01:52:43.008Z,55.84
2018-11-06T01:55:11.904Z,55.46
2018-11-06T01:57:40.268Z,55.29
2018-11-06T02:00:11.930Z,54.86
2018-11-06T02:02:40.200Z,54.94
2018-11-06T02:05:09.824Z,55.45
2018-11-06T02:07:37.976Z,55.25
2018-11-06T02:10:06.902Z,54.94
2018-11-06T02:12:35.820Z,55.41
2018-11-06T02:15:04.262Z,55.28
2018-11-06T02:17:32.357Z,54.97
2018-11-06T02:20:00.496Z,55.80
2018-11-06T02:22:28.624Z,55.60
2018-11-06T02:24:56.818Z,55.71
2018-11-06T02:27:24.933Z,55.81
2018-11-06T02:29:53.037Z,55.66
2018-11-06T02:32:21.160Z,55.82
2018-11-06T02:34:49.342Z,55.78
2018-11-06T02:37:17.610Z,55.10
2018-11-06T02:39:45.782Z,55.31
2018-11-06T02:42:13.887Z,55.74
2018-11-06T02:44:42.026Z,55.00
2018-11-06T02:47:10.418Z,55.67
2018-11-06T02:49:38.794Z,55.18
2018-11-06T02:52:07.558Z,55.30
2018-11-06T02:54:35.866Z,54.90
2018-11-06T02:57:03.982Z,55.08
2018-11-06T02:59:32.182Z,55.36
2018-11-06T03:02:00.309Z,55.76
2018-11-06T03:04:28.451Z,55.27
2018-11-06T03:06:56.565Z,55.77
2018-11-06T03:09:24.692Z,55.75
2018-11-06T03:11:52.782Z,55.82
2018-11-06T03:14:20.918Z,55.43
2018-11-06T03:16:49.103Z,54.51
2018-11-06T03:19:17.154Z,55.42
2018-11-06T03:21:45.237Z,55.29
2018-11-06T03:24:13.374Z,55.91
2018-11-06T03:26:41.507Z,55.30
2018-11-06T03:29:10.069Z,55.26
2018-11-06T03:31:38.206Z,55.07
2018-11-06T03:34:06.546Z,55.36
2018-11-06T03:36:34.806Z,55.37
2018-11-06T03:39:03.322Z,55.17
2018-11-06T03:41:31.434Z,55.04
2018-11-06T03:43:59.521Z,54.81
2018-11-06T03:46:27.634Z,54.37
2018-11-06T03:48:55.729Z,54.65
2018-11-06T03:51:23.818Z,55.14
2018-11-06T03:53:51.953Z,55.00
2018-11-06T03:56:20.065Z,55.82
2018-11-06T03:58:48.177Z,55.38
2018-11-06T04:01:16.341Z,55.79
2018-11-06T04:03:44.461Z,55.54
2018-11-06T04:06:13.486Z,55.90
2018-11-06T04:08:41.569Z,55.00
2018-11-06T04:11:09.701Z,55.13
2018-11-06T04:13:37.832Z,54.85
2018-11-06T04:16:05.948Z,55.98
2018-11-06T04:18:34.023Z,55.76
2018-11-06T04:21:02.097Z,55.64
2018-11-06T04:23:30.290Z,55.71
2018-11-06T04:25:58.361Z,55.20
2018-11-06T04:28:26.483Z,55.58
2018-11-06T04:30:54.556Z,55.83
2018-11-06T04:33:22.659Z,55.91
2018-11-06T04:35:50.724Z,55.55
2018-11-06T04:38:18.816Z,55.93
2018-11-06T04:40:46.861Z,55.33
2018-11-06T04:43:15.029Z,56.17
2018-11-06T04:45:43.083Z,55.79
2018-11-06T04:48:11.178Z,55.34
2018-11-06T04:50:39.259Z,55.82
2018-11-06T04:53:07.353Z,54.90
2018-11-06T04:55:35.437Z,55.35
2018-11-06T04:58:03.554Z,55.61
2018-11-06T05:00:31.749Z,57.00
2018-11-06T05:03:00.035Z,55.71
2018-11-06T05:05:28.097Z,57.22
2018-11-06T05:07:56.161Z,56.53
2018-11-06T05:10:24.229Z,57.32
2018-11-06T05:12:52.335Z,56.61
2018-11-06T05:15:20.414Z,56.36
2018-11-06T05:17:48.489Z,56.63
2018-11-06T05:20:17.563Z,57.22
2018-11-06T05:22:46.291Z,57.22
2018-11-06T05:25:14.815Z,57.24
2018-11-06T05:27:42.808Z,56.28
2018-11-06T05:30:11.854Z,57.08
2018-11-06T05:32:41.212Z,56.52
2018-11-06T05:35:10.014Z,56.76
2018-11-06T05:37:38.344Z,57.36
2018-11-06T05:40:17.954Z,56.93
2018-11-06T05:42:46.061Z,56.58
2018-11-06T05:45:14.182Z,56.53
2018-11-06T05:47:42.314Z,56.78
2018-11-06T05:50:10.392Z,56.97
2018-11-06T05:52:38.492Z,57.05
2018-11-06T05:55:06.660Z,57.71
2018-11-06T05:57:34.746Z,57.06
2018-11-06T06:00:02.814Z,57.25
2018-11-06T06:02:30.882Z,58.00
2018-11-06T06:04:58.985Z,57.43
2018-11-06T06:07:27.060Z,57.55
2018-11-06T06:09:55.151Z,57.76
2018-11-06T06:12:24.145Z,58.05
2018-11-06T06:14:52.245Z,57.51
2018-11-06T06:17:20.390Z,57.89
2018-11-06T06:19:48.364Z,58.25
2018-11-06T06:22:16.454Z,58.06
2018-11-06T06:24:44.523Z,57.28
2018-11-06T06:27:12.592Z,56.84
2018-11-06T06:29:40.730Z,57.44
2018-11-06T06:32:08.986Z,58.02
2018-11-06T06:34:37.147Z,56.84
2018-11-06T06:37:05.935Z,57.93
2018-11-06T06:39:34.044Z,57.39
2018-11-06T06:42:02.109Z,55.68
2018-11-06T06:44:30.169Z,57.43
2018-11-06T06:46:58.245Z,57.74
2018-11-06T06:49:26.389Z,57.55
2018-11-06T06:51:54.460Z,57.34
2018-11-06T06:54:22.747Z,56.87
2018-11-06T06:56:50.741Z,56.13
2018-11-06T06:59:18.906Z,57.12
2018-11-06T07:01:47.085Z,56.70
2018-11-06T07:04:16.159Z,55.91
2018-11-06T07:06:44.256Z,56.61
2018-11-06T07:09:12.347Z,57.01
2018-11-06T07:11:40.464Z,57.44
2018-11-06T07:14:08.538Z,57.96
2018-11-06T07:16:36.617Z,57.56
2018-11-06T07:19:04.725Z,58.24
2018-11-06T07:21:32.804Z,57.41
2018-11-06T07:24:00.953Z,56.64
2018-11-06T07:26:29.526Z,56.94
2018-11-06T07:28:57.723Z,57.24
2018-11-06T07:31:26.165Z,57.09
2018-11-06T07:33:54.263Z,57.43
2018-11-06T07:36:22.452Z,57.48
2018-11-06T07:38:50.529Z,57.76
2018-11-06T07:41:18.713Z,57.04
2018-11-06T07:43:46.817Z,57.38
2018-11-06T07:46:15.014Z,56.69
2018-11-06T07:48:43.086Z,56.69
2018-11-06T07:51:11.201Z,57.01
2018-11-06T07:53:39.277Z,56.47
2018-11-06T07:56:07.368Z,56.02
2018-11-06T07:58:35.424Z,56.08
2018-11-06T08:01:03.513Z,56.41
2018-11-06T08:03:31.572Z,55.70
2018-11-06T08:05:59.658Z,56.10
2018-11-06T08:08:27.728Z,55.76
2018-11-06T08:10:55.813Z,55.87
2018-11-06T08:13:23.923Z,55.39
2018-11-06T08:15:51.978Z,55.73
2018-11-06T08:18:20.029Z,54.83
2018-11-06T08:20:48.162Z,54.08
2018-11-06T08:23:16.234Z,54.88
2018-11-06T08:25:44.305Z,54.22
2018-11-06T08:28:12.485Z,54.72
2018-11-06T08:30:40.648Z,50.59
2018-11-06T08:33:08.649Z,47.27
2018-11-06T08:35:36.726Z,46.67
2018-11-06T08:38:05.918Z,45.69
2018-11-06T08:40:33.998Z,46.05
2018-11-06T08:43:02.101Z,46.18
2018-11-06T08:45:30.158Z,45.60
2018-11-06T08:47:58.261Z,46.38
2018-11-06T08:50:26.286Z,45.70
2018-11-06T08:52:54.357Z,46.20
2018-11-06T08:55:22.445Z,46.19
2018-11-06T08:57:50.514Z,45.85
2018-11-06T09:00:19.308Z,46.11
2018-11-06T09:02:48.331Z,46.43
2018-11-06T09:05:17.065Z,46.73
2018-11-06T09:07:45.288Z,47.64
2018-11-06T09:10:14.250Z,48.03
2018-11-06T09:12:42.378Z,47.92
2018-11-06T09:15:11.906Z,48.04
2018-11-06T09:17:40.241Z,48.01
2018-11-06T09:20:10.956Z,48.53
2018-11-06T09:22:39.407Z,49.07
2018-11-06T09:25:08.841Z,48.58
2018-11-06T09:27:36.935Z,49.35
2018-11-06T09:30:05.588Z,49.68
2018-11-06T09:32:33.663Z,49.76
2018-11-06T09:35:01.785Z,49.52
2018-11-06T09:37:29.807Z,50.10
2018-11-06T09:39:57.926Z,49.51
2018-11-06T09:42:26.021Z,49.72
2018-11-06T09:44:54.119Z,49.70
2018-11-06T09:47:22.137Z,50.49
2018-11-06T09:49:50.202Z,49.69
2018-11-06T09:52:18.349Z,50.03
2018-11-06T09:54:46.397Z,50.63
2018-11-06T09:57:14.454Z,50.48
2018-11-06T09:59:42.522Z,50.49
2018-11-06T10:02:10.623Z,50.82
2018-11-06T10:04:38.725Z,51.03
2018-11-06T10:07:07.297Z,50.47
2018-11-06T10:09:35.165Z,50.42
2018-11-06T10:12:03.226Z,50.82
2018-11-06T10:14:31.294Z,50.71
2018-11-06T10:16:59.376Z,50.23
2018-11-06T10:19:27.455Z,50.31
2018-11-06T10:21:55.525Z,50.44
2018-11-06T10:24:23.610Z,50.88
2018-11-06T10:26:51.693Z,51.21
2018-11-06T10:29:19.811Z,50.72
2018-11-06T10:31:47.887Z,50.74
2018-11-06T10:34:15.966Z,51.29
2018-11-06T10:36:44.168Z,51.44
2018-11-06T10:39:13.623Z,51.56
2018-11-06T10:41:41.719Z,51.61
2018-11-06T10:44:09.827Z,51.40
2018-11-06T10:46:38.185Z,50.88
2018-11-06T10:49:06.718Z,51.33
2018-11-06T10:51:34.873Z,51.47
2018-11-06T10:54:02.909Z,51.77
2018-11-06T10:56:30.976Z,50.81
2018-11-06T10:58:59.048Z,50.82
2018-11-06T11:01:32.706Z,51.61
2018-11-06T11:04:06.123Z,51.58
2018-11-06T11:06:34.160Z,51.44
2018-11-06T11:09:02.265Z,51.17
2018-11-06T11:11:30.461Z,51.49
2018-11-06T11:13:58.669Z,51.27
2018-11-06T11:16:26.938Z,50.40
2018-11-06T11:18:55.114Z,51.15
2018-11-06T11:21:23.205Z,50.95
2018-11-06T11:23:51.303Z,51.31
2018-11-06T11:26:19.571Z,51.27
2018-11-06T11:28:47.665Z,51.03
2018-11-06T11:31:15.734Z,51.13
2018-11-06T11:33:43.848Z,50.90
2018-11-06T11:36:11.972Z,51.05
2018-11-06T11:38:40.142Z,50.33
2018-11-06T11:41:08.229Z,50.43
2018-11-06T11:43:36.340Z,50.02
2018-11-06T11:46:04.534Z,50.91
2018-11-06T11:48:32.655Z,50.98
2018-11-06T11:51:00.822Z,51.20
2018-11-06T11:53:29.075Z,51.35
2018-11-06T11:55:57.249Z,50.46
2018-11-06T11:58:25.351Z,50.38
2018-11-06T12:00:53.442Z,50.68
2018-11-06T12:03:21.625Z,51.08
2018-11-06T12:05:49.689Z,50.86
2018-11-06T12:08:17.762Z,50.60
2018-11-06T12:10:45.851Z,51.32
2018-11-06T12:13:13.933Z,50.72
2018-11-06T12:15:42.020Z,51.27
2018-11-06T12:18:10.126Z,50.64
2018-11-06T12:20:38.178Z,50.51
2018-11-06T12:23:06.301Z,50.38
2018-11-06T12:25:34.538Z,50.58
2018-11-06T12:28:02.541Z,50.36
2018-11-06T12:30:30.791Z,50.62
2018-11-06T12:32:58.954Z,50.58
2018-11-06T12:35:27.051Z,50.53
2018-11-06T12:37:55.763Z,50.34
2018-11-06T12:40:23.852Z,49.98
2018-11-06T12:42:51.981Z,49.83
2018-11-06T12:45:20.023Z,49.63
2018-11-06T12:47:48.107Z,49.74
2018-11-06T12:50:16.375Z,49.66
2018-11-06T12:52:44.417Z,49.54
2018-11-06T12:55:14.738Z,50.08
2018-11-06T12:57:42.833Z,49.53
2018-11-06T13:00:14.384Z,49.57
2018-11-06T13:02:42.605Z,50.16
2018-11-06T13:05:10.926Z,49.28
2018-11-06T13:07:40.229Z,49.15
2018-11-06T13:10:08.758Z,49.84
2018-11-06T13:12:36.898Z,49.29
2018-11-06T13:15:05.755Z,49.73
2018-11-06T13:17:33.897Z,49.78
2018-11-06T13:20:02.205Z,49.17
2018-11-06T13:22:30.331Z,49.09
2018-11-06T13:24:58.950Z,48.60
2018-11-06T13:27:27.014Z,49.44
2018-11-06T13:29:55.263Z,49.03
2018-11-06T13:32:23.652Z,48.40
2018-11-06T13:34:51.930Z,48.93
2018-11-06T13:37:20.277Z,48.06
2018-11-06T13:39:48.628Z,49.04
2018-11-06T13:42:16.709Z,48.57
2018-11-06T13:44:44.986Z,48.17
2018-11-06T13:47:12.967Z,48.34
2018-11-06T13:49:41.194Z,48.50
2018-11-06T13:52:09.523Z,47.49
2018-11-06T13:54:37.678Z,47.81
2018-11-06T13:57:05.875Z,48.30
2018-11-06T13:59:34.037Z,47.54
2018-11-06T14:02:02.201Z,48.17
2018-11-06T14:04:30.300Z,47.84
2018-11-06T14:06:58.460Z,48.22
2018-11-06T14:09:26.510Z,47.40
2018-11-06T14:11:54.622Z,47.26
2018-11-06T14:14:22.736Z,47.71
2018-11-06T14:16:50.867Z,49.10
2018-11-06T14:19:18.963Z,48.42
2018-11-06T14:21:47.049Z,47.92
2018-11-06T14:24:15.168Z,49.34
2018-11-06T14:26:43.234Z,48.58
2018-11-06T14:29:11.406Z,48.34
2018-11-06T14:31:39.458Z,48.51
2018-11-06T14:34:07.535Z,46.70
2018-11-06T14:36:35.601Z,46.00
2018-11-06T14:39:06.778Z,46.57
2018-11-06T14:41:35.017Z,46.32
2018-11-06T14:44:03.074Z,46.13
2018-11-06T14:46:31.341Z,45.89
2018-11-06T14:48:59.517Z,45.42
2018-11-06T14:51:27.501Z,45.50
2018-11-06T14:53:55.599Z,45.17
2018-11-06T14:56:23.725Z,44.23
2018-11-06T14:58:51.913Z,44.10
2018-11-06T15:01:20.100Z,43.86
2018-11-06T15:03:48.270Z,43.59
2018-11-06T15:06:16.455Z,44.05
2018-11-06T15:08:44.541Z,44.01
2018-11-06T15:11:12.621Z,43.00
2018-11-06T15:13:40.711Z,43.68
2018-11-06T15:16:09.082Z,43.36
2018-11-06T15:18:37.151Z,43.55
2018-11-06T15:21:05.808Z,43.29
2018-11-06T15:23:33.909Z,42.26
2018-11-06T15:26:02.140Z,42.09
2018-11-06T15:28:30.208Z,41.92
2018-11-06T15:30:58.302Z,41.83
2018-11-06T15:33:26.515Z,43.75
2018-11-06T15:35:54.707Z,43.69
2018-11-06T15:38:22.789Z,43.68
2018-11-06T15:40:51.019Z,43.77
2018-11-06T15:43:18.969Z,43.89
2018-11-06T15:45:47.071Z,43.33
2018-11-06T15:48:15.158Z,43.81
2018-11-06T15:50:43.245Z,43.52
2018-11-06T15:53:11.343Z,43.86
2018-11-06T15:55:39.421Z,43.32
2018-11-06T15:58:07.490Z,43.96
2018-11-06T16:00:35.571Z,44.13
2018-11-06T16:03:03.693Z,43.59
2018-11-06T16:05:31.836Z,44.43
2018-11-06T16:07:59.950Z,43.83
2018-11-06T16:10:27.992Z,43.77
2018-11-06T16:12:56.078Z,42.93
2018-11-06T16:15:24.308Z,43.26
2018-11-06T16:20:25.762Z,42.76
2018-11-06T16:22:53.858Z,43.44
2018-11-06T16:25:21.951Z,42.40
2018-11-06T16:27:50.067Z,43.65
2018-11-06T16:30:19.531Z,43.78
2018-11-06T16:32:47.648Z,43.25
2018-11-06T16:35:17.081Z,44.22
2018-11-06T16:37:45.985Z,43.16
2018-11-06T16:40:15.547Z,43.16
2018-11-06T16:42:44.246Z,43.43
2018-11-06T16:45:14.595Z,44.13
2018-11-06T16:47:43.757Z,44.34
2018-11-06T16:50:13.218Z,44.07
2018-11-06T16:52:41.761Z,43.63
2018-11-06T16:55:10.682Z,43.64
2018-11-06T16:57:40.030Z,44.41
2018-11-06T17:00:10.445Z,43.67
2018-11-06T17:02:38.531Z,43.57
2018-11-06T17:05:07.181Z,43.62
2018-11-06T17:07:35.253Z,43.58
2018-11-06T17:10:03.371Z,44.19
2018-11-06T17:12:31.445Z,43.76
2018-11-06T17:14:59.546Z,44.48
2018-11-06T17:17:27.747Z,44.32
2018-11-06T17:19:55.770Z,43.48
2018-11-06T17:22:23.868Z,44.33
2018-11-06T17:24:52.044Z,43.90
2018-11-06T17:27:20.167Z,44.31
2018-11-06T17:29:49.003Z,44.05
2018-11-06T17:32:17.097Z,43.93
2018-11-06T17:34:45.247Z,44.22
2018-11-06T17:37:13.410Z,44.11
2018-11-06T17:39:41.660Z,43.89
2018-11-06T17:42:09.813Z,44.15
2018-11-06T17:44:37.982Z,44.21
2018-11-06T17:47:06.144Z,43.28
2018-11-06T17:49:34.269Z,43.29
2018-11-06T17:52:02.408Z,44.36
2018-11-06T17:54:30.486Z,43.17
2018-11-06T17:56:58.629Z,43.44
2018-11-06T17:59:26.761Z,44.03
2018-11-06T18:01:54.870Z,44.34
2018-11-06T18:04:23.079Z,44.32
2018-11-06T18:06:51.982Z,44.01
2018-11-06T18:09:20.100Z,44.18
2018-11-06T18:11:48.206Z,44.05
2018-11-06T18:14:16.265Z,43.35
2018-11-06T18:16:44.463Z,43.81
2018-11-06T18:19:12.553Z,44.14
2018-11-06T18:21:40.673Z,44.43
2018-11-06T18:24:08.777Z,44.15
2018-11-06T18:26:36.840Z,43.94
2018-11-06T18:29:05.240Z,43.67
2018-11-06T18:31:33.398Z,43.97
2018-11-06T18:34:01.462Z,43.84
2018-11-06T18:36:29.546Z,44.64
2018-11-06T18:38:57.654Z,43.35
2018-11-06T18:41:25.789Z,44.03
2018-11-06T18:43:54.597Z,43.93
2018-11-06T18:46:22.816Z,44.19
2018-11-06T18:48:51.000Z,44.75
2018-11-06T18:51:19.122Z,44.42
2018-11-06T18:53:47.399Z,43.92
2018-11-06T18:56:15.474Z,43.92
2018-11-06T18:58:43.646Z,44.23
2018-11-06T19:01:11.724Z,43.75
2018-11-06T19:03:39.801Z,44.82
2018-11-06T19:06:07.902Z,45.00
2018-11-06T19:08:36.058Z,44.84
2018-11-06T19:11:04.159Z,44.12
2018-11-06T19:13:32.256Z,44.53
2018-11-06T19:16:00.342Z,43.94
2018-11-06T19:18:28.452Z,43.99
2018-11-06T19:20:56.665Z,44.24
2018-11-06T19:23:24.792Z,44.06
2018-11-06T19:25:52.903Z,43.98
2018-11-06T19:28:21.046Z,44.25
2018-11-06T19:30:49.264Z,44.37
2018-11-06T19:33:17.352Z,43.64
2018-11-06T19:35:45.566Z,43.56
2018-11-06T19:38:13.694Z,44.48
2018-11-06T19:40:41.967Z,43.38
2018-11-06T19:43:09.950Z,44.25
2018-11-06T19:45:38.008Z,43.43
2018-11-06T19:48:06.121Z,43.20
2018-11-06T19:50:34.318Z,43.38
2018-11-06T19:53:02.462Z,43.62
2018-11-06T19:55:30.701Z,43.48
2018-11-06T19:57:59.405Z,43.39
2018-11-06T20:00:27.561Z,43.43
2018-11-06T20:02:55.632Z,42.83
2018-11-06T20:05:23.886Z,43.13
2018-11-06T20:07:52.568Z,43.44
2018-11-06T20:10:22.191Z,42.68
2018-11-06T20:12:51.411Z,42.99
2018-11-06T20:15:19.661Z,42.05
2018-11-06T20:17:47.907Z,42.55
2018-11-06T20:20:18.564Z,42.50
2018-11-06T20:22:46.682Z,42.53
2018-11-06T20:25:14.829Z,41.84
2018-11-06T20:27:43.295Z,42.67
2018-11-06T20:30:13.507Z,42.39
2018-11-06T20:32:41.884Z,42.56
2018-11-06T20:35:10.893Z,42.82
2018-11-06T20:37:40.794Z,42.42
2018-11-06T20:40:11.017Z,42.19
2018-11-06T20:42:39.602Z,41.95
2018-11-06T20:45:08.832Z,43.00
2018-11-06T20:47:37.038Z,41.88
2018-11-06T20:50:07.958Z,42.16
2018-11-06T20:52:36.030Z,42.01
2018-11-06T20:55:04.318Z,43.02
2018-11-06T20:57:32.472Z,43.01
2018-11-06T21:00:00.693Z,43.07
2018-11-06T21:02:28.897Z,42.19
2018-11-06T21:04:57.018Z,42.47
2018-11-06T21:07:25.109Z,42.21
2018-11-06T21:09:53.219Z,42.45
2018-11-06T21:12:21.294Z,43.07
2018-11-06T21:14:49.396Z,42.76
2018-11-06T21:17:17.461Z,42.87
2018-11-06T21:19:45.588Z,43.94
2018-11-06T21:22:13.689Z,43.69
2018-11-06T21:24:42.000Z,43.69
2018-11-06T21:27:10.222Z,42.68
2018-11-06T21:29:38.082Z,43.50
2018-11-06T21:32:07.282Z,43.91
2018-11-06T21:34:35.402Z,43.10
2018-11-06T21:37:03.564Z,43.40
2018-11-06T21:39:31.660Z,44.00
2018-11-06T21:41:59.890Z,44.11
2018-11-06T21:44:27.993Z,43.39
2018-11-06T21:46:56.162Z,43.64
2018-11-06T21:49:24.290Z,43.50
2018-11-06T21:51:52.427Z,43.84
2018-11-06T21:54:20.473Z,43.91
2018-11-06T21:56:48.583Z,44.55
2018-11-06T21:59:16.711Z,43.56
2018-11-06T22:01:44.821Z,44.21
2018-11-06T22:04:13.113Z,44.37
2018-11-06T22:06:41.220Z,44.00
2018-11-06T22:09:10.384Z,44.17
2018-11-06T22:11:38.476Z,44.61
2018-11-06T22:14:06.781Z,44.37
2018-11-06T22:16:34.929Z,44.06
2018-11-06T22:19:03.074Z,44.29
2018-11-06T22:21:31.170Z,44.73
2018-11-06T22:23:59.274Z,44.18
2018-11-06T22:26:27.518Z,43.91
2018-11-06T22:28:55.710Z,45.00
2018-11-06T22:31:23.961Z,45.01
2018-11-06T22:33:52.123Z,45.10
2018-11-06T22:36:20.213Z,45.07
2018-11-06T22:38:48.318Z,44.47
2018-11-06T22:41:16.411Z,44.80
2018-11-06T22:43:44.489Z,44.32
2018-11-06T22:46:12.701Z,45.36
2018-11-06T22:48:41.137Z,45.47
2018-11-06T22:51:09.198Z,44.89
2018-11-06T22:53:37.342Z,45.62
2018-11-06T22:56:05.509Z,45.15
2018-11-06T22:58:33.575Z,45.75
2018-11-06T23:01:07.105Z,45.00
2018-11-06T23:03:35.174Z,44.83
2018-11-06T23:06:03.474Z,45.30
2018-11-06T23:08:31.488Z,45.78
2018-11-06T23:10:59.591Z,45.99
2018-11-06T23:13:27.710Z,45.19
2018-11-06T23:15:55.845Z,45.75
2018-11-06T23:18:23.942Z,45.80
2018-11-06T23:20:52.006Z,45.71
2018-11-06T23:23:20.168Z,45.50
2018-11-06T23:25:48.320Z,45.49
2018-11-06T23:28:16.426Z,45.92
2018-11-06T23:30:44.485Z,46.59
2018-11-06T23:33:12.614Z,46.43
2018-11-06T23:35:40.829Z,45.87
2018-11-06T23:38:08.879Z,46.41
2018-11-06T23:40:37.977Z,46.23
2018-11-06T23:43:06.043Z,46.16
2018-11-06T23:45:34.111Z,46.63
2018-11-06T23:48:02.332Z,46.18
2018-11-06T23:50:30.454Z,46.26
2018-11-06T23:52:58.538Z,45.92
2018-11-06T23:55:26.618Z,46.10
2018-11-06T23:57:54.689Z,46.90
